Hampton, VA

06:16 EDT le 23 mai 2015 (GMT -0400)
Langley Air Force Base | | Change Station
CLOSE
Current Station
Aéroport
Location: Langley AFB,
Altitude: 10 ft
Stations météo à proximité

Alt. 10 ft 37.08 °N, 76.36 °W | Updated 18 minutes ago

Ciel dégagé
Ciel dégagé
59 ° F
Paraît 59 ° F
N
8
Vent Variable Vent de NNE

Aujourd'hui
Haut(e) -- | Bas -- ° F
--% Risque de précip.
Hier
Haut(e) -- | Bas -- ° F
Precip. -- pouce
5:51 AM 8:13 PM
Lune montante, 28% visible
Pression 30.35 pouce
Visibilité 10.0 Miles terrestres
Nuages Ciel dégagé
Point de rosée 50 ° F
Humidité 72%
Précipitations 0.00 pouce
Profondeur de la couche neigeuse Non disponible.
UV 0 sur 12
Pollen 8.10 sur 12
Qualité de l'air Non disponible.
Flu Activity No Activity
METAR KLFI 230958Z AUTO 03007KT 10SM CLR 15/10 A3033 RMK AO2 SLP277 T01500099 $

More Conditions Fewer Conditions

Pression 30.35 pouce
Visibilité 10.0 Miles terrestres
Nuages Ciel dégagé
Point de rosée 50 ° F
Humidité 72%
Précipitations 0.00 pouce
Profondeur de la couche neigeuse Non disponible.
UV 0 sur 12
Pollen 8.10 sur 12
Qualité de l'air Non disponible.
Flu Activity No Activity
METAR KLFI 230958Z AUTO 03007KT 10SM CLR 15/10 A3033 RMK AO2 SLP277 T01500099 $

More Conditions Fewer Conditions

10-Day Weather Forecast

Almanac

Astronomie

May. 23, 2015 Lever Coucher
Temps réel
Crépuscule civil
Crépuscule nautique
Crépuscule astronomique
Lune
Durée de lumière visible
Longueur du jour
Tomorrow will be .
, % of the Moon is Illuminated

Extrêmes aujourd'hui

State Highs State Lows

Community

WunderPhotos

Upload Photos

1,823,406 Photos téléchargées !

WunderBlogs® & News

Nearby

Qualité de l'air

  Qualité de l'air Indice de la qualité de l'air Polluant
Not available.

Épaisseur de neige

Station Depth Altitude

Activité sismique

Ville Distance Mag. Time & Date
Minimum magnitude displayed is 2.5.

Températures des eaux côtières

Lieu Température

Stations

Stations météo à proximité

Emplacement de la station Température Refroidissement éolien Point de rosée Humidité Vent Precip. Alt. Mise à jour Type